createdAt,value
2022-09-02T00:00:44.065Z,50.902409
2022-09-02T00:01:44.080Z,50.902393
2022-09-02T00:02:44.126Z,50.902378
2022-09-02T00:03:44.047Z,50.902393
2022-09-02T00:04:44.040Z,50.902401
2022-09-02T00:05:44.043Z,50.902382
2022-09-02T00:06:44.027Z,50.902401
2022-09-02T00:07:44.050Z,50.902397
2022-09-02T00:08:44.009Z,50.902386
2022-09-02T00:09:43.999Z,50.902401
2022-09-02T00:10:44.000Z,50.902382
2022-09-02T00:11:44.052Z,50.902386
2022-09-02T00:12:44.005Z,50.902397
2022-09-02T00:13:43.974Z,50.902393
2022-09-02T00:14:43.966Z,50.902401
2022-09-02T00:15:43.967Z,50.902382
2022-09-02T00:16:44.065Z,50.902386
2022-09-02T00:17:43.968Z,50.902409
2022-09-02T00:18:45.701Z,50.902390
2022-09-02T00:19:43.930Z,50.902393
2022-09-02T00:20:43.918Z,50.902443
2022-09-02T00:21:43.908Z,50.902458
2022-09-02T00:22:43.927Z,50.902424
2022-09-02T00:23:43.906Z,50.902431
2022-09-02T00:24:43.888Z,50.902416
2022-09-02T00:25:43.882Z,50.902409
2022-09-02T00:26:43.878Z,50.902390
2022-09-02T00:27:43.893Z,50.902401
2022-09-02T00:28:44.282Z,50.902397
2022-09-02T00:29:44.831Z,50.902370
2022-09-02T00:30:44.835Z,50.902397
2022-09-02T00:31:43.911Z,50.902405
2022-09-02T00:32:43.864Z,50.902405
2022-09-02T00:33:43.833Z,50.902416
2022-09-02T00:34:43.837Z,50.902390
2022-09-02T00:35:43.799Z,50.902424
2022-09-02T00:36:43.799Z,50.902428
2022-09-02T00:37:43.777Z,50.902412
2022-09-02T00:38:44.801Z,50.902409
2022-09-02T00:39:43.771Z,50.902424
2022-09-02T00:40:43.837Z,50.902409
2022-09-02T00:41:43.753Z,50.902405
2022-09-02T00:42:43.749Z,50.902405
2022-09-02T00:43:43.766Z,50.902378
2022-09-02T00:44:43.724Z,50.902409
2022-09-02T00:45:43.759Z,50.902405
2022-09-02T00:46:43.733Z,50.902390
2022-09-02T00:47:43.729Z,50.902397
2022-09-02T00:48:43.700Z,50.902397
2022-09-02T00:49:43.694Z,50.902386
2022-09-02T00:50:43.682Z,50.902374
2022-09-02T00:51:43.666Z,50.902370
2022-09-02T00:52:44.689Z,50.902378
2022-09-02T00:53:43.658Z,50.902382
2022-09-02T00:54:43.652Z,50.902355
2022-09-02T00:55:43.648Z,50.902306
2022-09-02T00:56:43.639Z,50.902336
2022-09-02T00:57:43.653Z,50.902359
2022-09-02T00:58:43.627Z,50.902359
2022-09-02T00:59:43.615Z,50.902367
2022-09-02T01:00:43.737Z,50.902370
2022-09-02T01:01:43.656Z,50.902370
2022-09-02T01:02:43.627Z,50.902374
2022-09-02T01:03:43.575Z,50.902382
2022-09-02T01:04:43.577Z,50.902370
2022-09-02T01:05:43.963Z,50.902367
2022-09-02T01:06:44.557Z,50.902363
2022-09-02T01:07:43.576Z,50.902390
2022-09-02T01:08:43.548Z,50.902382
2022-09-02T01:09:43.534Z,50.902390
2022-09-02T01:10:43.534Z,50.902397
2022-09-02T01:11:43.524Z,50.902374
2022-09-02T01:12:43.543Z,50.902336
2022-09-02T01:13:43.551Z,50.902416
2022-09-02T01:14:43.498Z,50.902382
2022-09-02T01:15:43.490Z,50.902370
2022-09-02T01:16:43.550Z,50.902367
2022-09-02T01:17:43.511Z,50.902363
2022-09-02T01:18:43.467Z,50.902374
2022-09-02T01:19:43.453Z,50.902519
2022-09-02T01:20:43.455Z,50.902565
2022-09-02T01:21:43.447Z,50.902435
2022-09-02T01:22:43.465Z,50.902390
2022-09-02T01:23:43.431Z,50.902424
2022-09-02T01:24:43.429Z,50.902382
2022-09-02T01:25:43.422Z,50.902409
2022-09-02T01:26:43.415Z,50.902359
2022-09-02T01:27:43.428Z,50.902344
2022-09-02T01:28:43.396Z,50.902397
2022-09-02T01:29:43.387Z,50.902328
2022-09-02T01:30:43.377Z,50.902374
2022-09-02T01:31:43.419Z,50.902317
2022-09-02T01:32:43.396Z,50.902363
2022-09-02T01:33:43.445Z,50.902378
2022-09-02T01:34:43.345Z,50.902390
2022-09-02T01:35:43.344Z,50.902359
2022-09-02T01:36:43.329Z,50.902344
2022-09-02T01:37:47.387Z,50.902355
2022-09-02T01:38:44.314Z,50.902367
2022-09-02T01:39:43.369Z,50.902382
2022-09-02T01:40:43.376Z,50.902393
2022-09-02T01:41:43.293Z,50.902382
2022-09-02T01:42:43.286Z,50.902397
2022-09-02T01:43:43.306Z,50.902393
2022-09-02T01:44:43.266Z,50.902390
2022-09-02T01:45:43.260Z,50.902370
2022-09-02T01:46:43.319Z,50.902382
2022-09-02T01:47:43.271Z,50.902370
2022-09-02T01:48:43.240Z,50.902390
2022-09-02T01:49:43.227Z,50.902370
2022-09-02T01:50:46.766Z,50.902390
2022-09-02T01:51:44.225Z,50.902374
2022-09-02T01:52:43.199Z,50.902390
2022-09-02T01:53:43.438Z,50.902382
2022-09-02T01:54:43.191Z,50.902393
2022-09-02T01:55:43.183Z,50.902431
2022-09-02T01:56:43.177Z,50.902393
2022-09-02T01:57:43.171Z,50.902378
2022-09-02T01:58:43.416Z,50.902386
2022-09-02T01:59:43.151Z,50.902401
2022-09-02T02:00:43.158Z,50.902390
2022-09-02T02:01:43.175Z,50.902390
2022-09-02T02:02:43.312Z,50.902390
2022-09-02T02:03:43.147Z,50.902390
2022-09-02T02:04:43.114Z,50.902390
2022-09-02T02:05:43.106Z,50.902390
2022-09-02T02:06:43.098Z,50.902378
2022-09-02T02:07:43.103Z,50.902382
2022-09-02T02:08:43.106Z,50.902401
2022-09-02T02:09:43.074Z,50.902386
2022-09-02T02:10:43.083Z,50.902397
2022-09-02T02:11:43.053Z,50.902378
2022-09-02T02:12:44.053Z,50.902401
2022-09-02T02:13:43.156Z,50.902397
2022-09-02T02:14:43.044Z,50.902367
2022-09-02T02:15:43.029Z,50.902397
2022-09-02T02:16:43.025Z,50.902412
2022-09-02T02:17:43.022Z,50.902401
2022-09-02T02:18:43.044Z,50.902409
2022-09-02T02:19:43.004Z,50.902435
2022-09-02T02:20:44.882Z,50.902412
2022-09-02T02:21:42.979Z,50.902401
2022-09-02T02:22:42.987Z,50.902390
2022-09-02T02:23:43.023Z,50.902397
2022-09-02T02:24:42.967Z,50.902390
2022-09-02T02:25:42.965Z,50.902393
2022-09-02T02:26:43.000Z,50.902409
2022-09-02T02:27:43.566Z,50.902393
2022-09-02T02:28:42.965Z,50.902401
2022-09-02T02:29:42.926Z,50.902409
2022-09-02T02:30:42.928Z,50.902405
2022-09-02T02:31:42.945Z,50.902409
2022-09-02T02:32:42.905Z,50.902412
2022-09-02T02:33:42.935Z,50.902409
2022-09-02T02:34:42.897Z,50.902405
2022-09-02T02:35:42.886Z,50.902405
2022-09-02T02:36:42.877Z,50.902378
2022-09-02T02:37:42.871Z,50.902401
2022-09-02T02:38:42.889Z,50.902386
2022-09-02T02:39:42.860Z,50.902355
2022-09-02T02:40:42.878Z,50.902363
2022-09-02T02:41:44.875Z,50.902382
2022-09-02T02:42:42.842Z,50.902378
2022-09-02T02:43:42.854Z,50.902397
2022-09-02T02:44:42.822Z,50.902386
2022-09-02T02:45:42.817Z,50.902412
2022-09-02T02:46:42.978Z,50.902393
2022-09-02T02:47:42.794Z,50.902431
2022-09-02T02:48:42.811Z,50.902466
2022-09-02T02:49:42.781Z,50.902431
2022-09-02T02:50:42.770Z,50.902412
2022-09-02T02:51:42.766Z,50.902397
2022-09-02T02:52:42.765Z,50.902412
2022-09-02T02:53:42.783Z,50.902409
2022-09-02T02:54:42.741Z,50.902439
2022-09-02T02:55:42.734Z,50.902454
2022-09-02T02:56:42.728Z,50.902443
2022-09-02T02:57:42.727Z,50.902409
2022-09-02T02:58:42.744Z,50.902416
2022-09-02T02:59:42.709Z,50.902416
2022-09-02T03:00:42.712Z,50.902401
2022-09-02T03:01:42.733Z,50.902405
2022-09-02T03:02:42.804Z,50.902420
2022-09-02T03:03:42.677Z,50.902462
2022-09-02T03:04:42.698Z,50.902405
2022-09-02T03:05:42.655Z,50.902424
2022-09-02T03:06:42.654Z,50.902416
2022-09-02T03:07:42.659Z,50.902443
2022-09-02T03:08:42.639Z,50.902439
2022-09-02T03:09:42.667Z,50.902431
2022-09-02T03:10:42.630Z,50.902416
2022-09-02T03:11:42.611Z,50.902412
2022-09-02T03:12:42.604Z,50.902397
2022-09-02T03:13:42.595Z,50.902458
2022-09-02T03:14:42.626Z,50.902458
2022-09-02T03:15:42.621Z,50.902458
2022-09-02T03:16:42.598Z,50.902454
2022-09-02T03:17:42.570Z,50.902428
2022-09-02T03:18:42.600Z,50.902405
2022-09-02T03:19:42.578Z,50.902431
2022-09-02T03:20:42.551Z,50.902428
2022-09-02T03:21:42.539Z,50.902431
2022-09-02T03:22:42.527Z,50.902428
2022-09-02T03:23:42.533Z,50.902439
2022-09-02T03:24:42.538Z,50.902416
2022-09-02T03:25:42.503Z,50.902409
2022-09-02T03:26:42.498Z,50.902386
2022-09-02T03:27:42.492Z,50.902363
2022-09-02T03:28:42.480Z,50.902409
2022-09-02T03:29:42.501Z,50.902393
2022-09-02T03:30:42.476Z,50.902382
2022-09-02T03:31:42.487Z,50.902390
2022-09-02T03:32:42.454Z,50.902416
2022-09-02T03:33:42.443Z,50.902470
2022-09-02T03:34:42.469Z,50.902443
2022-09-02T03:35:42.438Z,50.902401
2022-09-02T03:36:42.416Z,50.902424
2022-09-02T03:37:42.423Z,50.902420
2022-09-02T03:38:42.427Z,50.902401
2022-09-02T03:39:42.430Z,50.902409
2022-09-02T03:40:42.485Z,50.902397
2022-09-02T03:41:42.406Z,50.902382
2022-09-02T03:42:42.375Z,50.902458
2022-09-02T03:43:42.368Z,50.902386
2022-09-02T03:44:42.388Z,50.902405
2022-09-02T03:45:42.385Z,50.902412
2022-09-02T03:46:42.338Z,50.902443
2022-09-02T03:47:42.333Z,50.902393
2022-09-02T03:48:42.352Z,50.902428
2022-09-02T03:49:43.802Z,50.902409
2022-09-02T03:50:42.310Z,50.902428
2022-09-02T03:51:42.307Z,50.902401
2022-09-02T03:52:42.297Z,50.902428
2022-09-02T03:53:42.289Z,50.902405
2022-09-02T03:54:42.306Z,50.902401
2022-09-02T03:55:42.269Z,50.902428
2022-09-02T03:56:42.267Z,50.902435
2022-09-02T03:57:42.253Z,50.902420
2022-09-02T03:58:42.266Z,50.902431
2022-09-02T03:59:42.271Z,50.902382
2022-09-02T04:00:42.235Z,50.902420
2022-09-02T04:01:42.264Z,50.902443
2022-09-02T04:02:42.287Z,50.902428
2022-09-02T04:03:42.215Z,50.902424
2022-09-02T04:04:42.242Z,50.902405
2022-09-02T04:05:42.191Z,50.902420
2022-09-02T04:06:42.188Z,50.902405
2022-09-02T04:07:42.183Z,50.902428
2022-09-02T04:08:42.170Z,50.902439
2022-09-02T04:09:46.465Z,50.902435
2022-09-02T04:10:43.154Z,50.902435
2022-09-02T04:11:42.145Z,50.902443
2022-09-02T04:12:42.142Z,50.902439
2022-09-02T04:13:42.133Z,50.902431
2022-09-02T04:14:42.152Z,50.902431
2022-09-02T04:15:42.130Z,50.902420
2022-09-02T04:16:42.108Z,50.902424
2022-09-02T04:17:42.095Z,50.902439
2022-09-02T04:18:42.084Z,50.902435
2022-09-02T04:19:42.105Z,50.902420
2022-09-02T04:20:42.070Z,50.902405
2022-09-02T04:21:42.077Z,50.902401
2022-09-02T04:22:42.045Z,50.902390
2022-09-02T04:23:43.053Z,50.902412
2022-09-02T04:24:42.076Z,50.902386
2022-09-02T04:25:42.039Z,50.902420
2022-09-02T04:26:45.219Z,50.902397
2022-09-02T04:27:42.022Z,50.902431
2022-09-02T04:28:42.047Z,50.902443
2022-09-02T04:29:42.031Z,50.902435
2022-09-02T04:30:41.998Z,50.902431
2022-09-02T04:31:42.035Z,50.902431
2022-09-02T04:32:41.980Z,50.902424
2022-09-02T04:33:41.972Z,50.902412
2022-09-02T04:34:41.989Z,50.902409
2022-09-02T04:35:41.966Z,50.902412
2022-09-02T04:36:41.957Z,50.902412
2022-09-02T04:37:41.940Z,50.902397
2022-09-02T04:38:41.935Z,50.902420
2022-09-02T04:39:41.955Z,50.902405
2022-09-02T04:40:42.062Z,50.902393
2022-09-02T04:41:41.916Z,50.902409
2022-09-02T04:42:41.911Z,50.902393
2022-09-02T04:43:41.899Z,50.902424
2022-09-02T04:44:41.920Z,50.902420
2022-09-02T04:45:41.889Z,50.902416
2022-09-02T04:46:41.903Z,50.902424
2022-09-02T04:47:41.865Z,50.902431
2022-09-02T04:48:41.863Z,50.902428
2022-09-02T04:49:41.878Z,50.902420
2022-09-02T04:50:41.844Z,50.902439
2022-09-02T04:51:41.843Z,50.902412
2022-09-02T04:52:41.832Z,50.902428
2022-09-02T04:53:41.829Z,50.902431
2022-09-02T04:54:41.834Z,50.902409
2022-09-02T04:55:41.809Z,50.902424
2022-09-02T04:56:41.790Z,50.902428
2022-09-02T04:57:41.786Z,50.902420
2022-09-02T04:58:41.774Z,50.902431
2022-09-02T04:59:41.806Z,50.902420
2022-09-02T05:00:41.765Z,50.902416
2022-09-02T05:01:41.844Z,50.902420
2022-09-02T05:02:41.822Z,50.902390
2022-09-02T05:03:41.749Z,50.902401
2022-09-02T05:04:41.757Z,50.902401
2022-09-02T05:05:41.729Z,50.902393
2022-09-02T05:06:44.286Z,50.902390
2022-09-02T05:07:42.736Z,50.902367
2022-09-02T05:08:41.706Z,50.902390
2022-09-02T05:09:41.721Z,50.902401
2022-09-02T05:10:41.700Z,50.902374
2022-09-02T05:11:41.680Z,50.902382
2022-09-02T05:12:41.679Z,50.902378
2022-09-02T05:13:41.667Z,50.902328
2022-09-02T05:14:41.656Z,50.902393
2022-09-02T05:15:41.709Z,50.902390
2022-09-02T05:16:41.642Z,50.902390
2022-09-02T05:17:41.636Z,50.902397
2022-09-02T05:18:41.628Z,50.902405
2022-09-02T05:19:41.632Z,50.902386
2022-09-02T05:20:41.641Z,50.902390
2022-09-02T05:21:41.609Z,50.902405
2022-09-02T05:22:41.650Z,50.902401
2022-09-02T05:23:41.592Z,50.902378
2022-09-02T05:24:41.578Z,50.902393
2022-09-02T05:25:41.604Z,50.902401
2022-09-02T05:26:41.566Z,50.902409
2022-09-02T05:27:41.562Z,50.902409
2022-09-02T05:28:41.553Z,50.902393
2022-09-02T05:29:45.216Z,50.902397
2022-09-02T05:30:42.617Z,50.902370
2022-09-02T05:31:41.532Z,50.902378
2022-09-02T05:32:41.538Z,50.902378
2022-09-02T05:33:41.516Z,50.902382
2022-09-02T05:34:41.498Z,50.902405
2022-09-02T05:35:43.253Z,50.902409
2022-09-02T05:36:42.088Z,50.902397
2022-09-02T05:37:41.497Z,50.902367
2022-09-02T05:38:41.476Z,50.902374
2022-09-02T05:39:41.474Z,50.902390
2022-09-02T05:40:41.579Z,50.902363
2022-09-02T05:41:41.467Z,50.902382
2022-09-02T05:42:41.447Z,50.902374
2022-09-02T05:43:41.449Z,50.902382
2022-09-02T05:44:41.444Z,50.902390
2022-09-02T05:45:41.495Z,50.902390
2022-09-02T05:46:44.451Z,50.902393
2022-09-02T05:47:42.407Z,50.902412
2022-09-02T05:48:41.398Z,50.902378
2022-09-02T05:49:41.388Z,50.902367
2022-09-02T05:50:41.413Z,50.902397
2022-09-02T05:51:41.382Z,50.902382
2022-09-02T05:52:41.368Z,50.902382
2022-09-02T05:53:41.363Z,50.902435
2022-09-02T05:54:41.350Z,50.902412
2022-09-02T05:55:41.374Z,50.902390
2022-09-02T05:56:44.997Z,50.902393
2022-09-02T05:57:41.335Z,50.902378
2022-09-02T05:58:41.328Z,50.902382
2022-09-02T05:59:41.311Z,50.902386
2022-09-02T06:00:41.340Z,50.902344
2022-09-02T06:01:41.354Z,50.902363
2022-09-02T06:02:41.350Z,50.902363
2022-09-02T06:03:41.283Z,50.902386
2022-09-02T06:04:41.276Z,50.902390
2022-09-02T06:05:41.296Z,50.902390
2022-09-02T06:06:41.260Z,50.902382
2022-09-02T06:07:41.255Z,50.902344
2022-09-02T06:08:41.249Z,50.902317
2022-09-02T06:09:41.248Z,50.902409
2022-09-02T06:10:41.259Z,50.902397
2022-09-02T06:11:41.230Z,50.902378
2022-09-02T06:12:42.764Z,50.902382
2022-09-02T06:13:42.214Z,50.902374
2022-09-02T06:14:41.200Z,50.902363
2022-09-02T06:15:41.235Z,50.902328
2022-09-02T06:16:41.185Z,50.902317
2022-09-02T06:17:41.170Z,50.902374
2022-09-02T06:18:41.172Z,50.902393
2022-09-02T06:19:41.160Z,50.902378
2022-09-02T06:20:41.184Z,50.902374
2022-09-02T06:21:41.157Z,50.902355
2022-09-02T06:22:41.136Z,50.902386
2022-09-02T06:23:41.129Z,50.902374
2022-09-02T06:24:41.133Z,50.902367
2022-09-02T06:25:41.136Z,50.902355
2022-09-02T06:26:41.109Z,50.902355
2022-09-02T06:27:41.097Z,50.902393
2022-09-02T06:28:41.097Z,50.902393
2022-09-02T06:29:41.089Z,50.902374
2022-09-02T06:30:41.155Z,50.902378
2022-09-02T06:31:41.070Z,50.902401
2022-09-02T06:32:41.056Z,50.902374
2022-09-02T06:33:41.050Z,50.902390
2022-09-02T06:34:41.056Z,50.902439
2022-09-02T06:35:41.067Z,50.902412
2022-09-02T06:36:41.032Z,50.902393
2022-09-02T06:37:41.020Z,50.902378
2022-09-02T06:38:45.246Z,50.902393
2022-09-02T06:39:42.016Z,50.902393
2022-09-02T06:40:41.088Z,50.902382
2022-09-02T06:41:40.989Z,50.902393
2022-09-02T06:42:40.988Z,50.902409
2022-09-02T06:43:42.652Z,50.902397
2022-09-02T06:44:40.968Z,50.902397
2022-09-02T06:45:40.987Z,50.902393
2022-09-02T06:46:40.984Z,50.902397
2022-09-02T06:47:40.940Z,50.902393
2022-09-02T06:48:40.948Z,50.902374
2022-09-02T06:49:40.933Z,50.902390
2022-09-02T06:50:40.945Z,50.902405
2022-09-02T06:51:40.974Z,50.902386
2022-09-02T06:52:40.912Z,50.902374
2022-09-02T06:53:40.915Z,50.902367
2022-09-02T06:54:40.887Z,50.902367
2022-09-02T06:55:40.909Z,50.902374
2022-09-02T06:56:40.868Z,50.902405
2022-09-02T06:57:40.862Z,50.902378
2022-09-02T06:58:40.853Z,50.902420
2022-09-02T06:59:40.850Z,50.902393
2022-09-02T07:00:40.862Z,50.902405
2022-09-02T07:01:41.098Z,50.902390
2022-09-02T07:02:40.830Z,50.902416
2022-09-02T07:03:40.828Z,50.902367
2022-09-02T07:04:40.807Z,50.902443
2022-09-02T07:05:40.833Z,50.902359
2022-09-02T07:06:40.793Z,50.902370
2022-09-02T07:07:40.799Z,50.902370
2022-09-02T07:08:40.788Z,50.902344
2022-09-02T07:09:40.785Z,50.902367
2022-09-02T07:10:40.810Z,50.902351
2022-09-02T07:11:40.763Z,50.902367
2022-09-02T07:12:40.758Z,50.902359
2022-09-02T07:13:40.747Z,50.902355
2022-09-02T07:14:40.743Z,50.902367
2022-09-02T07:15:40.762Z,50.902340
2022-09-02T07:16:40.783Z,50.902359
2022-09-02T07:17:40.716Z,50.902351
2022-09-02T07:18:40.713Z,50.902363
2022-09-02T07:19:40.706Z,50.902355
2022-09-02T07:20:40.731Z,50.902370
2022-09-02T07:21:40.690Z,50.902355
2022-09-02T07:22:40.725Z,50.902359
2022-09-02T07:23:41.204Z,50.902359
2022-09-02T07:24:41.668Z,50.902351
2022-09-02T07:25:40.688Z,50.902340
2022-09-02T07:26:40.655Z,50.902344
2022-09-02T07:27:40.652Z,50.902374
2022-09-02T07:28:40.635Z,50.902382
2022-09-02T07:29:40.628Z,50.902363
2022-09-02T07:30:40.712Z,50.902355
2022-09-02T07:31:40.621Z,50.902386
2022-09-02T07:32:40.619Z,50.902336
2022-09-02T07:33:40.604Z,50.902351
2022-09-02T07:34:40.597Z,50.902359
2022-09-02T07:35:40.635Z,50.902367
2022-09-02T07:36:40.588Z,50.902355
2022-09-02T07:37:40.579Z,50.902382
2022-09-02T07:38:40.590Z,50.902336
2022-09-02T07:39:40.577Z,50.902351
2022-09-02T07:40:40.579Z,50.902382
2022-09-02T07:41:40.584Z,50.902359
2022-09-02T07:42:40.558Z,50.902367
2022-09-02T07:43:40.534Z,50.902378
2022-09-02T07:44:40.516Z,50.902405
2022-09-02T07:45:40.538Z,50.902401
2022-09-02T07:46:40.532Z,50.902355
2022-09-02T07:47:40.498Z,50.902355
2022-09-02T07:48:40.495Z,50.902332
2022-09-02T07:50:42.484Z,50.902374
2022-09-02T07:51:40.501Z,50.902386
2022-09-02T07:52:40.462Z,50.902401
2022-09-02T07:53:40.463Z,50.902405
2022-09-02T07:54:40.448Z,50.902348
2022-09-02T07:55:40.475Z,50.902355
2022-09-02T07:56:40.461Z,50.902351
2022-09-02T07:57:40.431Z,50.902477
2022-09-02T07:58:40.429Z,50.902458
2022-09-02T07:59:40.417Z,50.902416
2022-09-02T08:00:40.412Z,50.902431
2022-09-02T08:02:40.550Z,50.902393
2022-09-02T08:03:40.381Z,50.902401
2022-09-02T08:04:40.381Z,50.902412
2022-09-02T08:05:40.377Z,50.902435
2022-09-02T08:06:40.395Z,50.902416
2022-09-02T08:07:40.349Z,50.902420
2022-09-02T08:08:40.362Z,50.902405
2022-09-02T08:09:40.347Z,50.902424
2022-09-02T08:10:40.331Z,50.902405
2022-09-02T08:11:40.348Z,50.902451
2022-09-02T08:12:40.328Z,50.902439
2022-09-02T08:13:40.309Z,50.902428
2022-09-02T08:14:40.301Z,50.902420
2022-09-02T08:15:40.306Z,50.902431
2022-09-02T08:16:40.382Z,50.902424
2022-09-02T08:17:40.327Z,50.902405
2022-09-02T08:18:40.287Z,50.902439
2022-09-02T08:19:40.274Z,50.902435
2022-09-02T08:20:40.258Z,50.902420
2022-09-02T08:21:40.285Z,50.902443
2022-09-02T08:22:40.251Z,50.902454
2022-09-02T08:23:40.510Z,50.902443
2022-09-02T08:24:40.220Z,50.902420
2022-09-02T08:25:40.219Z,50.902443
2022-09-02T08:26:40.236Z,50.902435
2022-09-02T08:27:40.218Z,50.902401
2022-09-02T08:28:40.201Z,50.902431
2022-09-02T08:29:40.222Z,50.902424
2022-09-02T08:30:40.177Z,50.902443
2022-09-02T08:31:40.286Z,50.902431
2022-09-02T08:32:40.163Z,50.902435
2022-09-02T08:33:40.168Z,50.902431
2022-09-02T08:34:40.148Z,50.902428
2022-09-02T08:35:40.144Z,50.902428
2022-09-02T08:36:40.166Z,50.902416
2022-09-02T08:37:41.174Z,50.902428
2022-09-02T08:38:40.142Z,50.902412
2022-09-02T08:39:40.120Z,50.902416
2022-09-02T08:40:40.161Z,50.902416
2022-09-02T08:41:40.140Z,50.902405
2022-09-02T08:42:40.085Z,50.902390
2022-09-02T08:43:40.130Z,50.902409
2022-09-02T08:44:40.113Z,50.902405
2022-09-02T08:45:40.123Z,50.902420
2022-09-02T08:46:40.081Z,50.902420
2022-09-02T08:47:40.045Z,50.902420
2022-09-02T08:48:40.036Z,50.902412
2022-09-02T08:49:40.036Z,50.902412
2022-09-02T08:50:40.023Z,50.902393
2022-09-02T08:51:40.079Z,50.902397
2022-09-02T08:52:40.004Z,50.902401
2022-09-02T08:53:40.006Z,50.902401
2022-09-02T08:54:40.035Z,50.902397
2022-09-02T08:55:39.985Z,50.902401
2022-09-02T08:56:40.002Z,50.902409
2022-09-02T08:57:43.444Z,50.902397
2022-09-02T08:58:39.968Z,50.902393
2022-09-02T09:00:41.034Z,50.902363
2022-09-02T09:01:39.968Z,50.902386
2022-09-02T09:02:43.380Z,50.902390
2022-09-02T09:03:41.923Z,50.902416
2022-09-02T09:04:39.914Z,50.902416
2022-09-02T09:05:39.921Z,50.902409
2022-09-02T09:06:39.932Z,50.902409
2022-09-02T09:07:39.901Z,50.902416
2022-09-02T09:08:39.885Z,50.902405
2022-09-02T09:09:39.910Z,50.902405
2022-09-02T09:10:39.877Z,50.902401
2022-09-02T09:11:39.896Z,50.902405
2022-09-02T09:12:39.855Z,50.902409
2022-09-02T09:13:41.541Z,50.902382
2022-09-02T09:14:40.836Z,50.902386
2022-09-02T09:15:39.833Z,50.902397
2022-09-02T09:16:39.901Z,50.902454
2022-09-02T09:17:39.824Z,50.902405
2022-09-02T09:18:39.807Z,50.902416
2022-09-02T09:19:39.802Z,50.902409
2022-09-02T09:20:39.793Z,50.902405
2022-09-02T09:21:39.812Z,50.902397
2022-09-02T09:22:39.786Z,50.902348
2022-09-02T09:23:39.778Z,50.902382
2022-09-02T09:24:39.801Z,50.902435
2022-09-02T09:25:39.774Z,50.902401
2022-09-02T09:26:39.790Z,50.902416
2022-09-02T09:27:39.752Z,50.902382
2022-09-02T09:28:39.717Z,50.902390
2022-09-02T09:29:40.749Z,50.902382
2022-09-02T09:30:39.726Z,50.902401
2022-09-02T09:31:39.804Z,50.902420
2022-09-02T09:32:39.719Z,50.902420
2022-09-02T09:33:39.691Z,50.902428
2022-09-02T09:34:39.689Z,50.902416
2022-09-02T09:35:39.662Z,50.902424
2022-09-02T09:36:40.708Z,50.902420
2022-09-02T09:37:39.672Z,50.902386
2022-09-02T09:38:39.660Z,50.902363
2022-09-02T09:39:39.649Z,50.902397
2022-09-02T09:40:39.676Z,50.902386
2022-09-02T09:41:39.627Z,50.902420
2022-09-02T09:42:39.677Z,50.902439
2022-09-02T09:43:39.615Z,50.902355
2022-09-02T09:44:39.638Z,50.902390
2022-09-02T09:45:39.642Z,50.902397
2022-09-02T09:46:39.595Z,50.902420
2022-09-02T09:47:39.612Z,50.902382
2022-09-02T09:48:39.578Z,50.902382
2022-09-02T09:49:39.566Z,50.902435
2022-09-02T09:50:39.556Z,50.902439
2022-09-02T09:51:49.672Z,50.902386
2022-09-02T09:52:40.570Z,50.902332
2022-09-02T09:53:39.540Z,50.902344
2022-09-02T09:54:39.535Z,50.902229
2022-09-02T09:55:39.914Z,50.902351
2022-09-02T09:56:40.518Z,50.902401
2022-09-02T09:57:39.544Z,50.902397
2022-09-02T09:58:39.506Z,50.902397
2022-09-02T09:59:39.500Z,50.902393
2022-09-02T10:00:39.515Z,50.902435
2022-09-02T10:01:39.483Z,50.902416
2022-09-02T10:02:39.552Z,50.902397
2022-09-02T10:03:39.472Z,50.902386
2022-09-02T10:04:43.411Z,50.902393
2022-09-02T10:05:40.458Z,50.902424
2022-09-02T10:06:39.444Z,50.902412
2022-09-02T10:07:39.646Z,50.902412
2022-09-02T10:08:39.465Z,50.902386
2022-09-02T10:09:39.481Z,50.902428
2022-09-02T10:10:39.512Z,50.902401
2022-09-02T10:11:39.435Z,50.902416
2022-09-02T10:12:39.454Z,50.902424
2022-09-02T10:13:39.392Z,50.902405
2022-09-02T10:14:39.399Z,50.902397
2022-09-02T10:15:40.380Z,50.902424
2022-09-02T10:16:39.404Z,50.902424
2022-09-02T10:17:39.418Z,50.902451
2022-09-02T10:18:39.391Z,50.902412
2022-09-02T10:19:39.339Z,50.902420
2022-09-02T10:20:48.396Z,50.902416
2022-09-02T10:21:45.030Z,50.902386
2022-09-02T10:22:58.487Z,50.902386
2022-09-02T10:23:40.313Z,50.902405
2022-09-02T10:24:39.314Z,50.902420
2022-09-02T10:25:39.295Z,50.902447
2022-09-02T10:26:39.314Z,50.902409
2022-09-02T10:27:39.304Z,50.902416
2022-09-02T10:28:39.277Z,50.902409
2022-09-02T10:29:39.268Z,50.902382
2022-09-02T10:30:39.264Z,50.902401
2022-09-02T10:31:39.295Z,50.902390
2022-09-02T10:32:39.282Z,50.902393
2022-09-02T10:33:39.243Z,50.902409
2022-09-02T10:34:39.239Z,50.902416
2022-09-02T10:35:39.227Z,50.902405
2022-09-02T10:36:39.227Z,50.902416
2022-09-02T10:37:39.233Z,50.902405
2022-09-02T10:38:39.197Z,50.902401
2022-09-02T10:39:39.194Z,50.902401
2022-09-02T10:40:39.258Z,50.902409
2022-09-02T10:41:39.233Z,50.902409
2022-09-02T10:42:39.205Z,50.902401
2022-09-02T10:43:39.168Z,50.902401
2022-09-02T10:44:39.156Z,50.902393
2022-09-02T10:45:39.151Z,50.902382
2022-09-02T10:46:39.177Z,50.902401
2022-09-02T10:47:39.188Z,50.902393
2022-09-02T10:48:39.128Z,50.902416
2022-09-02T10:49:39.120Z,50.902401
2022-09-02T10:50:39.105Z,50.902401
2022-09-02T10:51:39.102Z,50.902370
2022-09-02T10:52:39.118Z,50.902405
2022-09-02T10:53:39.089Z,50.902412
2022-09-02T10:54:39.077Z,50.902401
2022-09-02T10:55:39.075Z,50.902412
2022-09-02T10:56:39.053Z,50.902393
2022-09-02T10:57:40.077Z,50.902416
2022-09-02T10:58:39.047Z,50.902401
2022-09-02T10:59:39.049Z,50.902420
2022-09-02T11:00:39.067Z,50.902405
2022-09-02T11:01:39.512Z,50.902386
2022-09-02T11:02:39.041Z,50.902416
2022-09-02T11:03:39.051Z,50.902370
2022-09-02T11:04:39.003Z,50.902409
2022-09-02T11:05:40.011Z,50.902435
2022-09-02T11:06:58.823Z,50.902409
2022-09-02T11:07:41.019Z,50.902409
2022-09-02T11:08:38.997Z,50.902382
2022-09-02T11:09:38.969Z,50.902409
2022-09-02T11:10:38.971Z,50.902405
2022-09-02T11:11:38.968Z,50.902401
2022-09-02T11:12:38.979Z,50.902401
2022-09-02T11:13:38.939Z,50.902363
2022-09-02T11:14:38.935Z,50.902420
2022-09-02T11:15:38.932Z,50.902443
2022-09-02T11:16:38.928Z,50.902401
2022-09-02T11:17:38.952Z,50.902378
2022-09-02T11:18:38.902Z,50.902451
2022-09-02T11:19:38.930Z,50.902428
2022-09-02T11:20:38.889Z,50.902405
2022-09-02T11:21:38.883Z,50.902374
2022-09-02T11:22:38.905Z,50.902382
2022-09-02T11:23:38.871Z,50.902416
2022-09-02T11:24:40.348Z,50.902397
2022-09-02T11:25:38.854Z,50.902370
2022-09-02T11:26:38.842Z,50.902390
2022-09-02T11:27:42.596Z,50.902363